createdAt,value
2023-04-26T00:02:08.023Z,5.93
2023-04-26T00:04:35.425Z,5.88
2023-04-26T00:07:04.072Z,5.82
2023-04-26T00:09:31.996Z,5.38
2023-04-26T00:11:59.054Z,5.80
2023-04-26T00:14:26.437Z,5.90
2023-04-26T00:16:53.356Z,5.40
2023-04-26T00:19:22.028Z,6.10
2023-04-26T00:21:49.573Z,5.53
2023-04-26T00:24:16.963Z,5.63
2023-04-26T00:26:43.782Z,5.55
2023-04-26T00:29:11.385Z,5.13
2023-04-26T00:31:39.951Z,6.22
2023-04-26T00:34:09.260Z,5.43
2023-04-26T00:36:36.504Z,5.60
2023-04-26T00:39:03.786Z,5.80
2023-04-26T00:41:32.229Z,4.85
2023-04-26T00:44:00.317Z,5.55
2023-04-26T00:46:29.488Z,6.07
2023-04-26T00:48:57.827Z,5.50
2023-04-26T00:51:26.093Z,5.68
2023-04-26T00:53:54.733Z,5.53
2023-04-26T00:56:22.467Z,5.28
2023-04-26T00:58:51.549Z,5.78
2023-04-26T01:01:18.717Z,6.03
2023-04-26T01:03:47.054Z,5.63
2023-04-26T01:06:14.577Z,5.50
2023-04-26T01:08:41.861Z,8.32
2023-04-26T01:11:11.990Z,6.22
2023-04-26T01:13:40.894Z,6.18
2023-04-26T01:16:09.632Z,5.78
2023-04-26T01:18:37.087Z,6.95
2023-04-26T01:21:05.927Z,6.40
2023-04-26T01:23:34.287Z,6.60
2023-04-26T01:26:02.906Z,5.82
2023-04-26T01:28:29.798Z,5.90
2023-04-26T01:30:56.777Z,6.75
2023-04-26T01:33:23.908Z,5.85
2023-04-26T01:35:52.213Z,6.30
2023-04-26T01:38:20.246Z,6.93
2023-04-26T01:40:47.212Z,6.65
2023-04-26T01:43:15.654Z,6.38
2023-04-26T01:45:46.435Z,6.57
2023-04-26T01:48:32.274Z,6.50
2023-04-26T01:51:02.196Z,6.72
2023-04-26T01:53:30.237Z,6.70
2023-04-26T01:56:00.584Z,6.45
2023-04-26T01:58:27.436Z,7.22
2023-04-26T02:00:57.384Z,6.03
2023-04-26T02:03:24.761Z,5.65
2023-04-26T02:05:51.812Z,7.43
2023-04-26T02:08:19.126Z,6.32
2023-04-26T02:10:46.691Z,6.53
2023-04-26T02:13:16.023Z,6.28
2023-04-26T02:15:47.976Z,7.05
2023-04-26T02:18:15.508Z,6.30
2023-04-26T02:20:46.376Z,6.68
2023-04-26T02:23:15.845Z,6.70
2023-04-26T02:25:47.706Z,6.60
2023-04-26T02:28:16.368Z,6.53
2023-04-26T02:30:43.591Z,7.07
2023-04-26T02:33:11.814Z,6.80
2023-04-26T02:35:39.288Z,6.63
2023-04-26T02:38:06.876Z,6.63
2023-04-26T02:40:34.307Z,6.43
2023-04-26T02:43:02.814Z,6.65
2023-04-26T02:45:29.823Z,6.63
2023-04-26T02:47:56.901Z,5.70
2023-04-26T02:50:23.927Z,5.80
2023-04-26T02:52:51.511Z,6.38
2023-04-26T02:55:18.882Z,6.80
2023-04-26T02:57:48.668Z,6.07
2023-04-26T03:00:15.869Z,6.25
2023-04-26T03:02:43.042Z,6.03
2023-04-26T03:05:10.823Z,5.65
2023-04-26T03:07:38.102Z,5.45
2023-04-26T03:10:05.670Z,5.82
2023-04-26T03:12:33.842Z,5.47
2023-04-26T03:15:03.934Z,5.05
2023-04-26T03:17:32.085Z,6.03
2023-04-26T03:20:02.375Z,5.07
2023-04-26T03:22:31.171Z,5.00
2023-04-26T03:25:02.319Z,5.72
2023-04-26T03:27:33.613Z,5.85
2023-04-26T03:30:02.392Z,5.65
2023-04-26T03:32:32.805Z,4.95
2023-04-26T03:35:00.183Z,5.15
2023-04-26T03:37:27.425Z,5.78
2023-04-26T03:40:02.585Z,5.38
2023-04-26T03:42:31.362Z,5.43
2023-04-26T03:44:58.333Z,5.63
2023-04-26T03:47:25.601Z,4.68
2023-04-26T03:49:52.684Z,5.28
2023-04-26T03:52:20.038Z,5.82
2023-04-26T03:54:48.984Z,4.82
2023-04-26T03:57:16.254Z,5.35
2023-04-26T03:59:43.561Z,5.07
2023-04-26T04:02:11.603Z,4.28
2023-04-26T04:04:38.777Z,5.30
2023-04-26T04:07:06.914Z,5.25
2023-04-26T04:09:34.816Z,5.53
2023-04-26T04:12:03.124Z,4.45
2023-04-26T04:14:30.861Z,4.88
2023-04-26T04:16:59.726Z,4.78
2023-04-26T04:19:28.682Z,4.63
2023-04-26T04:21:56.989Z,4.82
2023-04-26T04:24:26.584Z,4.30
2023-04-26T04:26:53.823Z,4.55
2023-04-26T04:29:22.145Z,4.22
2023-04-26T04:31:49.968Z,4.00
2023-04-26T04:34:17.301Z,4.40
2023-04-26T04:36:45.471Z,4.30
2023-04-26T04:39:16.140Z,3.70
2023-04-26T04:41:49.126Z,5.05
2023-04-26T04:44:24.395Z,3.92
2023-04-26T04:46:52.959Z,4.35
2023-04-26T04:49:20.964Z,4.35
2023-04-26T04:51:48.192Z,4.22
2023-04-26T04:54:17.990Z,4.85
2023-04-26T04:56:47.541Z,4.07
2023-04-26T04:59:16.177Z,5.03
2023-04-26T05:01:43.133Z,4.28
2023-04-26T05:04:14.843Z,4.57
2023-04-26T05:06:42.290Z,4.28
2023-04-26T05:09:11.481Z,4.18
2023-04-26T05:11:38.856Z,4.50
2023-04-26T05:14:07.925Z,3.70
2023-04-26T05:16:35.251Z,4.03
2023-04-26T05:19:03.840Z,4.25
2023-04-26T05:21:37.831Z,4.07
2023-04-26T05:24:14.026Z,4.10
2023-04-26T05:26:41.498Z,3.78
2023-04-26T05:29:33.820Z,3.33
2023-04-26T05:32:27.548Z,3.45
2023-04-26T05:35:24.294Z,4.05
2023-04-26T05:37:51.922Z,3.80
2023-04-26T05:40:24.817Z,4.20
2023-04-26T05:43:54.757Z,4.88
2023-04-26T05:46:33.102Z,3.70
2023-04-26T05:49:00.201Z,3.88
2023-04-26T05:51:28.374Z,3.80
2023-04-26T05:53:55.456Z,4.90
2023-04-26T05:56:24.390Z,4.22
2023-04-26T05:58:54.485Z,4.15
2023-04-26T06:01:22.841Z,4.20
2023-04-26T06:03:50.523Z,4.80
2023-04-26T06:06:21.548Z,4.38
2023-04-26T06:08:49.233Z,4.22
2023-04-26T06:11:16.331Z,4.13
2023-04-26T06:13:43.946Z,4.90
2023-04-26T06:16:11.031Z,4.30
2023-04-26T06:18:38.363Z,4.93
2023-04-26T06:21:07.166Z,4.70
2023-04-26T06:23:34.119Z,4.72
2023-04-26T06:26:01.048Z,4.18
2023-04-26T06:28:29.203Z,4.50
2023-04-26T06:30:57.644Z,4.47
2023-04-26T06:33:25.955Z,4.28
2023-04-26T06:35:53.237Z,4.50
2023-04-26T06:38:20.557Z,3.97
2023-04-26T06:40:47.588Z,3.80
2023-04-26T06:43:17.076Z,4.13
2023-04-26T06:45:51.671Z,3.38
2023-04-26T06:48:20.179Z,3.85
2023-04-26T06:50:48.667Z,4.00
2023-04-26T06:53:16.373Z,3.05
2023-04-26T06:55:43.477Z,4.00
2023-04-26T06:58:10.536Z,3.55
2023-04-26T07:00:37.428Z,3.63
2023-04-26T07:03:04.452Z,3.40
2023-04-26T07:05:31.907Z,3.75
2023-04-26T07:07:58.767Z,3.72
2023-04-26T07:10:27.464Z,4.07
2023-04-26T07:12:54.905Z,3.97
2023-04-26T07:15:21.777Z,4.07
2023-04-26T07:17:48.748Z,4.13
2023-04-26T07:20:19.907Z,3.47
2023-04-26T07:22:47.414Z,3.78
2023-04-26T07:25:14.427Z,4.00
2023-04-26T07:27:41.317Z,4.18
2023-04-26T07:30:09.128Z,4.05
2023-04-26T07:32:36.659Z,4.30
2023-04-26T07:35:08.235Z,4.30
2023-04-26T07:37:35.311Z,4.43
2023-04-26T07:40:02.206Z,4.35
2023-04-26T07:42:30.960Z,3.97
2023-04-26T07:44:57.834Z,4.45
2023-04-26T07:47:24.787Z,4.57
2023-04-26T07:49:54.771Z,4.80
2023-04-26T07:52:21.653Z,4.03
2023-04-26T07:54:48.503Z,3.92
2023-04-26T07:57:15.402Z,3.90
2023-04-26T07:59:42.348Z,4.25
2023-04-26T08:02:09.604Z,3.88
2023-04-26T08:04:36.884Z,4.22
2023-04-26T08:07:07.198Z,4.43
2023-04-26T08:09:34.037Z,4.00
2023-04-26T08:12:02.425Z,4.13
2023-04-26T08:14:36.878Z,3.78
2023-04-26T08:17:03.989Z,4.53
2023-04-26T08:19:33.581Z,4.03
2023-04-26T08:22:00.846Z,3.70
2023-04-26T08:24:30.828Z,4.05
2023-04-26T08:27:01.301Z,3.55
2023-04-26T08:29:29.366Z,3.25
2023-04-26T08:31:58.550Z,3.28
2023-04-26T08:34:30.547Z,3.40
2023-04-26T08:36:57.761Z,3.22
2023-04-26T08:39:25.158Z,3.20
2023-04-26T08:41:55.477Z,3.17
2023-04-26T08:44:25.182Z,3.17
2023-04-26T08:46:54.902Z,3.70
2023-04-26T08:49:44.004Z,3.58
2023-04-26T08:52:14.073Z,3.10
2023-04-26T08:54:42.651Z,3.65
2023-04-26T08:57:10.005Z,3.40
2023-04-26T08:59:38.362Z,2.88
2023-04-26T09:02:10.141Z,3.15
2023-04-26T09:04:41.203Z,3.28
2023-04-26T09:07:08.604Z,4.18
2023-04-26T09:09:43.359Z,2.58
2023-04-26T09:12:10.401Z,3.60
2023-04-26T09:14:38.993Z,4.00
2023-04-26T09:17:06.720Z,3.72
2023-04-26T09:19:44.701Z,3.35
2023-04-26T09:25:09.975Z,3.72
2023-04-26T09:27:44.310Z,3.38
2023-04-26T09:30:18.430Z,3.60
2023-04-26T09:32:52.400Z,3.60
2023-04-26T09:35:24.630Z,3.63
2023-04-26T09:38:18.391Z,3.45
2023-04-26T09:40:55.478Z,3.17
2023-04-26T09:43:23.634Z,3.50
2023-04-26T09:45:53.197Z,3.70
2023-04-26T09:48:26.340Z,3.85
2023-04-26T09:50:55.218Z,3.45
2023-04-26T09:53:34.452Z,3.42
2023-04-26T09:56:27.860Z,3.58
2023-04-26T09:59:16.128Z,3.97
2023-04-26T10:01:42.991Z,3.55
2023-04-26T10:04:10.019Z,3.40
2023-04-26T10:06:37.112Z,3.22
2023-04-26T10:09:05.877Z,3.28
2023-04-26T10:11:35.996Z,2.53
2023-04-26T10:14:04.263Z,3.15
2023-04-26T10:16:31.666Z,2.90
2023-04-26T10:19:02.567Z,2.85
2023-04-26T10:21:38.208Z,2.92
2023-04-26T10:24:05.673Z,2.53
2023-04-26T10:26:54.980Z,2.80
2023-04-26T10:29:22.748Z,2.80
2023-04-26T10:32:12.498Z,3.13
2023-04-26T10:34:42.203Z,3.17
2023-04-26T10:37:15.271Z,2.80
2023-04-26T10:39:47.307Z,3.00
2023-04-26T10:42:30.906Z,3.17
2023-04-26T10:44:59.319Z,3.50
2023-04-26T10:47:34.940Z,3.05
2023-04-26T10:50:11.951Z,2.95
2023-04-26T10:53:04.413Z,3.15
2023-04-26T10:55:42.559Z,2.25
2023-04-26T10:58:41.572Z,2.53
2023-04-26T11:01:13.591Z,2.70
2023-04-26T11:04:04.157Z,2.63
2023-04-26T11:06:57.962Z,2.30
2023-04-26T11:09:41.591Z,2.50
2023-04-26T11:14:41.753Z,2.63
2023-04-26T11:17:09.623Z,2.33
2023-04-26T11:19:41.435Z,2.78
2023-04-26T11:22:08.912Z,2.40
2023-04-26T11:24:39.937Z,2.33
2023-04-26T11:27:12.839Z,2.05
2023-04-26T11:29:40.118Z,2.70
2023-04-26T11:32:07.164Z,2.53
2023-04-26T11:34:39.439Z,2.67
2023-04-26T11:37:08.072Z,2.10
2023-04-26T11:39:38.656Z,2.40
2023-04-26T11:42:10.540Z,2.78
2023-04-26T11:44:39.860Z,2.20
2023-04-26T11:47:08.204Z,2.45
2023-04-26T11:49:39.974Z,2.22
2023-04-26T11:52:08.261Z,2.50
2023-04-26T11:54:37.800Z,2.33
2023-04-26T11:57:17.762Z,2.40
2023-04-26T11:59:46.303Z,2.58
2023-04-26T12:02:13.336Z,2.40
2023-04-26T12:04:41.903Z,2.20
2023-04-26T12:07:09.736Z,1.77
2023-04-26T12:09:44.747Z,2.00
2023-04-26T12:12:12.544Z,1.90
2023-04-26T12:14:40.698Z,2.30
2023-04-26T12:17:08.156Z,2.10
2023-04-26T12:19:38.502Z,2.03
2023-04-26T12:22:07.039Z,2.42
2023-04-26T12:24:36.926Z,2.15
2023-04-26T12:27:06.947Z,2.22
2023-04-26T12:29:35.050Z,2.47
2023-04-26T12:32:02.969Z,2.58
2023-04-26T12:34:31.066Z,2.05
2023-04-26T12:36:58.257Z,2.35
2023-04-26T12:39:25.138Z,2.40
2023-04-26T12:41:51.981Z,1.98
2023-04-26T12:44:20.589Z,2.50
2023-04-26T12:46:49.029Z,2.10
2023-04-26T12:49:15.881Z,2.67
2023-04-26T12:51:42.763Z,2.60
2023-04-26T12:54:11.792Z,2.33
2023-04-26T12:56:43.871Z,2.50
2023-04-26T12:59:12.642Z,2.28
2023-04-26T13:01:39.622Z,2.72
2023-04-26T13:04:07.028Z,2.35
2023-04-26T13:06:34.946Z,2.75
2023-04-26T13:09:02.102Z,2.40
2023-04-26T13:11:29.091Z,2.70
2023-04-26T13:13:56.314Z,2.35
2023-04-26T13:16:23.289Z,1.90
2023-04-26T13:18:50.236Z,2.20
2023-04-26T13:21:17.203Z,2.17
2023-04-26T13:23:44.073Z,1.95
2023-04-26T13:26:10.946Z,2.35
2023-04-26T13:28:37.744Z,2.17
2023-04-26T13:31:04.778Z,1.83
2023-04-26T13:33:32.635Z,2.83
2023-04-26T13:35:59.513Z,2.55
2023-04-26T13:38:34.460Z,1.98
2023-04-26T13:41:02.715Z,2.55
2023-04-26T13:43:29.601Z,2.25
2023-04-26T13:45:56.771Z,2.22
2023-04-26T13:48:23.636Z,1.90
2023-04-26T13:51:00.772Z,2.38
2023-04-26T13:53:27.805Z,2.30
2023-04-26T13:55:54.679Z,3.03
2023-04-26T13:58:23.963Z,2.55
2023-04-26T14:00:50.803Z,1.95
2023-04-26T14:03:18.983Z,2.25
2023-04-26T14:05:45.939Z,1.95
2023-04-26T14:08:12.851Z,2.22
2023-04-26T14:10:39.953Z,2.22
2023-04-26T14:13:06.794Z,2.00
2023-04-26T14:15:33.571Z,2.25
2023-04-26T14:18:00.548Z,2.03
2023-04-26T14:20:27.360Z,2.67
2023-04-26T14:22:54.238Z,2.05
2023-04-26T14:25:21.199Z,2.15
2023-04-26T14:27:48.771Z,1.85
2023-04-26T14:30:15.719Z,2.35
2023-04-26T14:32:42.615Z,2.20
2023-04-26T14:35:12.518Z,2.05
2023-04-26T14:37:39.434Z,2.30
2023-04-26T14:40:08.108Z,1.90
2023-04-26T14:42:35.911Z,2.00
2023-04-26T14:45:02.824Z,2.55
2023-04-26T14:47:34.244Z,1.98
2023-04-26T14:50:01.165Z,2.85
2023-04-26T14:52:31.505Z,2.53
2023-04-26T14:54:58.632Z,2.72
2023-04-26T14:57:25.582Z,2.50
2023-04-26T14:59:52.427Z,2.20
2023-04-26T15:02:19.341Z,2.13
2023-04-26T15:04:46.516Z,2.55
2023-04-26T15:07:24.894Z,2.72
2023-04-26T15:09:58.316Z,2.13
2023-04-26T15:12:25.402Z,2.70
2023-04-26T15:14:52.309Z,2.50
2023-04-26T15:17:19.175Z,2.25
2023-04-26T15:19:46.648Z,2.42
2023-04-26T15:22:14.660Z,2.47
2023-04-26T15:24:41.531Z,2.47
2023-04-26T15:27:08.684Z,2.50
2023-04-26T15:29:36.057Z,2.20
2023-04-26T15:32:03.310Z,2.50
2023-04-26T15:34:38.894Z,2.83
2023-04-26T15:37:05.975Z,2.70
2023-04-26T15:39:32.799Z,2.20
2023-04-26T15:42:00.343Z,2.58
2023-04-26T15:44:27.685Z,2.70
2023-04-26T15:46:54.526Z,2.72
2023-04-26T15:49:23.198Z,2.42
2023-04-26T15:51:50.080Z,2.38
2023-04-26T15:54:16.973Z,2.20
2023-04-26T15:56:46.502Z,2.20
2023-04-26T15:59:13.881Z,2.20
2023-04-26T16:01:41.217Z,2.08
2023-04-26T16:04:08.358Z,1.90
2023-04-26T16:06:35.202Z,2.08
2023-04-26T16:09:20.804Z,2.10
2023-04-26T16:11:51.010Z,2.03
2023-04-26T16:14:27.006Z,1.90
2023-04-26T16:16:53.843Z,1.90
2023-04-26T16:19:31.887Z,2.58
2023-04-26T16:22:09.971Z,1.73
2023-04-26T16:24:36.983Z,2.08
2023-04-26T16:27:07.504Z,2.45
2023-04-26T16:29:46.089Z,1.88
2023-04-26T16:32:14.768Z,1.88
2023-04-26T16:34:53.657Z,1.88
2023-04-26T16:37:36.650Z,1.88
2023-04-26T16:40:11.709Z,2.50
2023-04-26T16:42:45.850Z,2.17
2023-04-26T16:45:16.069Z,1.95
2023-04-26T16:47:47.473Z,2.05
2023-04-26T16:50:14.680Z,2.33
2023-04-26T16:52:42.802Z,1.90
2023-04-26T16:55:17.873Z,2.25
2023-04-26T16:57:46.153Z,2.10
2023-04-26T17:00:18.105Z,2.05
2023-04-26T17:02:50.517Z,1.85
2023-04-26T17:05:18.069Z,2.20
2023-04-26T17:07:45.063Z,2.05
2023-04-26T17:10:12.125Z,2.45
2023-04-26T17:12:39.229Z,2.17
2023-04-26T17:15:09.801Z,2.55
2023-04-26T17:17:36.936Z,2.30
2023-04-26T17:20:28.978Z,2.50
2023-04-26T17:22:58.685Z,2.22
2023-04-26T17:25:26.275Z,2.90
2023-04-26T17:27:53.659Z,2.70
2023-04-26T17:30:25.967Z,2.22
2023-04-26T17:32:53.377Z,2.20
2023-04-26T17:35:20.992Z,2.55
2023-04-26T17:37:51.571Z,2.22
2023-04-26T17:40:19.230Z,2.30
2023-04-26T17:42:48.559Z,2.65
2023-04-26T17:45:18.148Z,2.60
2023-04-26T17:47:46.113Z,2.38
2023-04-26T17:50:15.536Z,2.95
2023-04-26T17:52:42.773Z,2.20
2023-04-26T17:55:13.478Z,2.55
2023-04-26T17:57:44.024Z,2.35
2023-04-26T18:00:12.902Z,2.45
2023-04-26T18:02:49.595Z,2.85
2023-04-26T18:05:18.985Z,2.40
2023-04-26T18:07:50.739Z,2.35
2023-04-26T18:10:24.036Z,2.60
2023-04-26T18:12:59.000Z,2.47
2023-04-26T18:15:26.107Z,2.22
2023-04-26T18:17:53.534Z,2.42
2023-04-26T18:20:20.606Z,2.30
2023-04-26T18:22:47.431Z,2.40
2023-04-26T18:25:16.023Z,2.03
2023-04-26T18:27:43.335Z,2.70
2023-04-26T18:30:12.886Z,2.40
2023-04-26T18:32:41.409Z,3.10
2023-04-26T18:35:08.532Z,2.45
2023-04-26T18:37:35.518Z,2.80
2023-04-26T18:40:02.333Z,2.38
2023-04-26T18:42:30.752Z,2.70
2023-04-26T18:44:57.635Z,2.40
2023-04-26T18:47:24.536Z,2.38
2023-04-26T18:49:51.677Z,2.30
2023-04-26T18:52:18.939Z,2.42
2023-04-26T18:54:46.900Z,2.95
2023-04-26T18:57:14.929Z,2.88
2023-04-26T18:59:41.740Z,2.38
2023-04-26T19:02:08.780Z,2.65
2023-04-26T19:04:35.775Z,2.75
2023-04-26T19:07:02.824Z,2.97
2023-04-26T19:09:42.780Z,2.78
2023-04-26T19:12:17.695Z,2.65
2023-04-26T19:14:44.484Z,2.88
2023-04-26T19:17:11.475Z,2.47
2023-04-26T19:19:38.357Z,2.85
2023-04-26T19:22:05.275Z,2.85
2023-04-26T19:24:32.072Z,2.65
2023-04-26T19:26:58.865Z,2.75
2023-04-26T19:29:25.902Z,3.08
2023-04-26T19:31:52.915Z,2.78
2023-04-26T19:34:19.938Z,2.80
2023-04-26T19:36:46.761Z,2.72
2023-04-26T19:39:13.569Z,2.97
2023-04-26T19:41:40.526Z,3.20
2023-04-26T19:44:07.333Z,2.60
2023-04-26T19:46:34.309Z,2.78
2023-04-26T19:49:01.282Z,3.50
2023-04-26T19:51:29.917Z,2.80
2023-04-26T19:53:56.789Z,3.38
2023-04-26T19:56:23.616Z,2.95
2023-04-26T19:58:50.446Z,3.40
2023-04-26T20:01:17.534Z,3.08
2023-04-26T20:03:44.783Z,3.15
2023-04-26T20:06:14.020Z,2.85
2023-04-26T20:08:41.657Z,3.70
2023-04-26T20:11:35.735Z,3.83
2023-04-26T20:14:02.522Z,3.35
2023-04-26T20:16:29.498Z,3.40
2023-04-26T20:18:56.981Z,3.33
2023-04-26T20:21:29.045Z,3.20
2023-04-26T20:23:58.584Z,3.40
2023-04-26T20:26:25.698Z,3.50
2023-04-26T20:28:55.277Z,3.30
2023-04-26T20:31:29.877Z,3.10
2023-04-26T20:33:58.283Z,3.03
2023-04-26T20:36:27.440Z,3.30
2023-04-26T20:38:54.264Z,3.45
2023-04-26T20:41:22.241Z,2.80
2023-04-26T20:43:49.258Z,3.45
2023-04-26T20:46:21.015Z,2.80
2023-04-26T20:48:56.331Z,2.90
2023-04-26T20:51:51.481Z,2.97
2023-04-26T20:54:19.241Z,2.97
2023-04-26T20:56:48.524Z,2.95
2023-04-26T20:59:21.140Z,2.70
2023-04-26T21:01:48.054Z,3.25
2023-04-26T21:04:15.265Z,3.25
2023-04-26T21:06:42.482Z,2.85
2023-04-26T21:09:12.483Z,2.90
2023-04-26T21:11:41.586Z,3.25
2023-04-26T21:14:11.104Z,3.38
2023-04-26T21:16:47.980Z,3.60
2023-04-26T21:19:14.845Z,2.95
2023-04-26T21:21:44.484Z,2.92
2023-04-26T21:24:11.378Z,3.10
2023-04-26T21:26:41.451Z,3.28
2023-04-26T21:29:08.754Z,2.75
2023-04-26T21:31:36.166Z,3.50
2023-04-26T21:34:03.145Z,3.10
2023-04-26T21:36:30.037Z,3.65
2023-04-26T21:38:56.924Z,3.10
2023-04-26T21:41:25.776Z,3.00
2023-04-26T21:43:57.234Z,3.05
2023-04-26T21:46:24.281Z,3.08
2023-04-26T21:48:51.330Z,3.00
2023-04-26T21:51:20.012Z,3.10
2023-04-26T21:53:47.039Z,3.38
2023-04-26T21:56:14.780Z,2.55
2023-04-26T21:58:42.111Z,2.75
2023-04-26T22:01:11.541Z,2.70
2023-04-26T22:03:40.982Z,2.50
2023-04-26T22:06:09.429Z,2.95
2023-04-26T22:08:37.024Z,3.08
2023-04-26T22:11:03.946Z,3.05
2023-04-26T22:13:32.429Z,3.05
2023-04-26T22:15:59.515Z,2.70
2023-04-26T22:18:27.177Z,2.50
2023-04-26T22:20:54.304Z,2.83
2023-04-26T22:23:21.326Z,2.75
2023-04-26T22:25:48.215Z,2.78
2023-04-26T22:28:15.697Z,3.08
2023-04-26T22:30:42.872Z,3.00
2023-04-26T22:33:11.268Z,2.20
2023-04-26T22:35:38.387Z,3.55
2023-04-26T22:38:05.309Z,2.40
2023-04-26T22:40:32.775Z,2.15
2023-04-26T22:42:59.820Z,3.55
2023-04-26T22:45:27.071Z,2.95
2023-04-26T22:47:54.067Z,2.92
2023-04-26T22:50:21.698Z,4.40
2023-04-26T22:52:49.876Z,3.70
2023-04-26T22:55:17.266Z,3.95
2023-04-26T22:57:45.051Z,2.90
2023-04-26T23:00:14.829Z,2.60
2023-04-26T23:02:42.041Z,2.38
2023-04-26T23:05:12.163Z,2.50
2023-04-26T23:07:39.967Z,3.00
2023-04-26T23:10:07.555Z,2.63
2023-04-26T23:12:36.161Z,3.05
2023-04-26T23:15:05.351Z,2.40
2023-04-26T23:17:35.478Z,2.55
2023-04-26T23:20:08.197Z,2.15
2023-04-26T23:22:35.050Z,2.72
2023-04-26T23:25:02.048Z,2.40
2023-04-26T23:27:31.150Z,2.55
2023-04-26T23:29:59.628Z,3.63
2023-04-26T23:32:27.064Z,2.72
2023-04-26T23:34:53.883Z,2.92
2023-04-26T23:37:21.209Z,2.20
2023-04-26T23:39:48.131Z,2.50
2023-04-26T23:42:16.559Z,2.85
2023-04-26T23:44:43.461Z,2.35
2023-04-26T23:47:10.480Z,3.13
2023-04-26T23:49:37.362Z,3.10
2023-04-26T23:52:06.803Z,2.95
2023-04-26T23:54:33.756Z,3.25
2023-04-26T23:57:00.797Z,2.63
2023-04-26T23:59:27.657Z,2.78
